Terminal Aerodrome Forecast
Issued by NWS

Home | Current Version | Previous Version | Text Only | Print | Product List | Glossary On
Versions: 1 2 3 4 5 6 7 8 9 10 11 12
563
FTUS43 KGRR 221123
TAFAZO
TAF
KAZO 221123Z 2212/2312 16006KT P6SM SKC WS020/20035KT
     FM221500 18010G24KT P6SM SCT250 WS020/20035KT
     FM222100 18010G21KT P6SM VCSH OVC070
     FM230000 19007KT P6SM -SHRA OVC030 WS020/19035KT
     FM230400 23005KT 4SM -SHRA BR OVC015=

USA.gov is the U.S. government's official web portal to all federal, state and local government web resources and services.